createdAt,value
2019-04-05T00:00:11.875Z,232.43
2019-04-05T00:04:18.284Z,235.83
2019-04-05T00:08:24.640Z,226.50
2019-04-05T00:12:31.770Z,235.27
2019-04-05T00:16:38.838Z,238.03
2019-04-05T00:20:46.077Z,239.20
2019-04-05T00:24:53.238Z,244.90
2019-04-05T00:29:00.304Z,238.37
2019-04-05T00:33:07.546Z,238.70
2019-04-05T00:37:14.647Z,234.63
2019-04-05T00:41:21.884Z,236.63
2019-04-05T00:45:29.116Z,229.43
2019-04-05T00:49:36.332Z,220.27
2019-04-05T00:53:43.523Z,238.87
2019-04-05T00:57:50.581Z,215.27
2019-04-05T01:01:57.647Z,233.93
2019-04-05T01:06:04.848Z,221.77
2019-04-05T01:10:12.426Z,234.53
2019-04-05T01:14:19.667Z,233.90
2019-04-05T01:18:26.760Z,232.57
2019-04-05T01:22:34.533Z,233.67
2019-04-05T01:26:43.851Z,228.23
2019-04-05T01:30:51.048Z,232.73
2019-04-05T01:34:58.167Z,225.37
2019-04-05T01:39:05.902Z,234.93
2019-04-05T01:43:14.484Z,226.97
2019-04-05T01:47:21.637Z,235.40
2019-04-05T01:51:28.773Z,245.93
2019-04-05T01:55:36.040Z,205.60
2019-04-05T01:59:43.288Z,229.90
2019-04-05T02:03:50.669Z,236.67
2019-04-05T02:07:58.071Z,225.37
2019-04-05T02:12:05.269Z,230.07
2019-04-05T02:16:12.338Z,234.70
2019-04-05T02:20:19.991Z,228.87
2019-04-05T02:24:27.087Z,232.93
2019-04-05T02:28:34.544Z,230.00
2019-04-05T02:32:41.695Z,232.30
2019-04-05T02:36:48.749Z,231.23
2019-04-05T02:40:58.740Z,229.40
2019-04-05T02:45:08.017Z,229.30
2019-04-05T02:49:15.509Z,229.47
2019-04-05T02:53:22.993Z,234.33
2019-04-05T02:57:30.316Z,231.43
2019-04-05T03:01:37.362Z,225.87
2019-04-05T03:05:45.191Z,228.47
2019-04-05T03:09:52.945Z,239.40
2019-04-05T03:14:01.054Z,230.27
2019-04-05T03:18:08.853Z,232.00
2019-04-05T03:22:17.906Z,235.73
2019-04-05T03:26:29.048Z,238.47
2019-04-05T03:30:40.196Z,242.40
2019-04-05T03:34:47.390Z,240.87
2019-04-05T03:38:54.932Z,241.83
2019-04-05T03:43:03.073Z,238.37
2019-04-05T03:47:10.348Z,236.97
2019-04-05T03:51:17.485Z,244.07
2019-04-05T03:55:24.609Z,241.03
2019-04-05T03:59:32.021Z,241.87
2019-04-05T04:03:39.156Z,241.67
2019-04-05T04:07:47.061Z,247.27
2019-04-05T04:11:54.230Z,242.20
2019-04-05T04:16:01.607Z,247.43
2019-04-05T04:20:27.568Z,242.97
2019-04-05T04:24:35.551Z,246.23
2019-04-05T04:28:42.780Z,251.33
2019-04-05T04:32:49.848Z,248.70
2019-04-05T04:36:57.056Z,254.50
2019-04-05T04:41:04.529Z,254.47
2019-04-05T04:45:12.980Z,247.17
2019-04-05T04:49:20.429Z,250.17
2019-04-05T04:53:28.069Z,239.67
2019-04-05T04:57:35.288Z,252.13
2019-04-05T05:01:43.694Z,255.37
2019-04-05T05:05:50.977Z,245.30
2019-04-05T05:09:58.138Z,245.67
2019-04-05T05:14:05.627Z,245.27
2019-04-05T05:18:13.402Z,251.23
2019-04-05T05:22:20.969Z,251.60
2019-04-05T05:26:28.548Z,256.10
2019-04-05T05:30:36.198Z,247.17
2019-04-05T05:34:45.105Z,241.53
2019-04-05T05:38:52.535Z,246.63
2019-04-05T05:42:59.601Z,244.37
2019-04-05T05:47:08.680Z,247.23
2019-04-05T05:51:16.042Z,245.73
2019-04-05T05:55:23.159Z,245.37
2019-04-05T05:59:30.788Z,241.50
2019-04-05T06:03:38.892Z,240.67
2019-04-05T06:07:46.005Z,247.43
2019-04-05T06:11:53.224Z,242.57
2019-04-05T06:16:00.315Z,244.17
2019-04-05T06:20:08.033Z,237.20
2019-04-05T06:24:15.109Z,241.10
2019-04-05T06:28:22.312Z,237.73
2019-04-05T06:32:29.374Z,238.27
2019-04-05T06:36:36.485Z,239.30
2019-04-05T06:40:43.708Z,242.37
2019-04-05T06:44:51.103Z,242.00
2019-04-05T06:48:58.823Z,239.67
2019-04-05T06:53:06.028Z,234.40
2019-04-05T06:57:13.239Z,232.07
2019-04-05T07:01:20.336Z,219.20
2019-04-05T07:05:27.384Z,230.67
2019-04-05T07:09:34.547Z,230.30
2019-04-05T07:13:41.772Z,227.03
2019-04-05T07:17:48.975Z,222.93
2019-04-05T07:21:56.100Z,227.03
2019-04-05T07:26:03.256Z,230.13
2019-04-05T07:30:11.002Z,221.03
2019-04-05T07:34:18.112Z,237.13
2019-04-05T07:38:25.352Z,232.10
2019-04-05T07:42:32.514Z,229.67
2019-04-05T07:46:40.029Z,236.87
2019-04-05T07:50:47.236Z,234.57
2019-04-05T07:54:54.305Z,229.67
2019-04-05T07:59:01.533Z,233.40
2019-04-05T08:03:08.909Z,231.53
2019-04-05T08:07:18.294Z,237.27
2019-04-05T08:11:25.490Z,231.13
2019-04-05T08:15:32.815Z,233.53
2019-04-05T08:19:40.095Z,235.70
2019-04-05T08:23:47.468Z,237.63
2019-04-05T08:27:54.983Z,234.63
2019-04-05T08:32:13.960Z,235.03
2019-04-05T08:36:11.138Z,225.53
2019-04-05T08:40:18.369Z,229.23
2019-04-05T08:44:25.900Z,224.30
2019-04-05T08:48:32.974Z,225.57
2019-04-05T08:52:40.105Z,220.10
2019-04-05T08:56:47.792Z,229.80
2019-04-05T09:00:55.504Z,226.07
2019-04-05T09:05:05.230Z,231.33
2019-04-05T09:09:12.294Z,227.23
2019-04-05T09:13:19.503Z,222.93
2019-04-05T09:17:26.733Z,223.50
2019-04-05T09:21:33.807Z,224.70
2019-04-05T09:25:41.466Z,221.23
2019-04-05T09:29:48.758Z,222.13
2019-04-05T09:33:56.332Z,219.57
2019-04-05T09:38:03.436Z,220.10
2019-04-05T09:42:10.764Z,220.27
2019-04-05T09:46:18.073Z,222.07
2019-04-05T09:50:29.648Z,221.30
2019-04-05T09:54:36.842Z,225.17
2019-04-05T09:58:44.570Z,231.20
2019-04-05T10:02:51.871Z,223.70
2019-04-05T10:07:00.579Z,225.80
2019-04-05T10:11:07.751Z,224.50
2019-04-05T10:15:15.060Z,231.87
2019-04-05T10:19:22.192Z,225.90
2019-04-05T10:23:29.231Z,223.23
2019-04-05T10:27:36.339Z,234.37
2019-04-05T10:31:43.837Z,237.20
2019-04-05T10:35:51.105Z,233.57
2019-04-05T10:39:58.187Z,228.70
2019-04-05T10:44:07.565Z,226.63
2019-04-05T10:48:15.169Z,236.77
2019-04-05T10:52:22.980Z,236.67
2019-04-05T10:56:30.392Z,229.53
2019-04-05T11:00:37.936Z,233.43
2019-04-05T11:04:45.434Z,240.80
2019-04-05T11:08:52.496Z,230.33
2019-04-05T11:12:59.564Z,230.37
2019-04-05T11:17:06.752Z,230.00
2019-04-05T11:21:13.848Z,227.43
2019-04-05T11:25:21.228Z,236.60
2019-04-05T11:29:28.339Z,234.93
2019-04-05T11:33:35.631Z,240.60
2019-04-05T11:37:43.425Z,228.60
2019-04-05T11:41:51.822Z,231.53
2019-04-05T11:45:59.126Z,224.37
2019-04-05T11:50:12.106Z,226.90
2019-04-05T11:54:19.514Z,228.37
2019-04-05T11:58:26.658Z,223.60
2019-04-05T12:02:38.735Z,229.37
2019-04-05T12:06:45.836Z,223.27
2019-04-05T12:10:52.922Z,225.10
2019-04-05T12:15:00.080Z,237.80
2019-04-05T12:19:07.240Z,227.50
2019-04-05T12:23:14.424Z,228.40
2019-04-05T12:27:21.636Z,229.33
2019-04-05T12:31:28.859Z,242.97
2019-04-05T12:35:37.599Z,234.37
2019-04-05T12:39:44.977Z,234.63
2019-04-05T12:43:52.268Z,233.77
2019-04-05T12:47:59.377Z,230.90
2019-04-05T12:52:06.759Z,233.20
2019-04-05T12:56:13.991Z,234.83
2019-04-05T13:00:23.620Z,239.47
2019-04-05T13:04:30.948Z,234.47
2019-04-05T13:08:38.095Z,232.67
2019-04-05T13:12:45.213Z,231.27
2019-04-05T13:16:52.469Z,230.30
2019-04-05T13:21:00.353Z,231.43
2019-04-05T13:25:10.812Z,231.47
2019-04-05T13:29:17.651Z,233.50
2019-04-05T13:33:28.861Z,236.40
2019-04-05T13:37:35.253Z,232.60
2019-04-05T13:41:42.437Z,235.93
2019-04-05T13:45:49.601Z,232.07
2019-04-05T13:49:56.726Z,232.40
2019-04-05T13:54:04.245Z,234.70
2019-04-05T13:58:12.038Z,230.57
2019-04-05T14:02:21.189Z,238.33
2019-04-05T14:06:28.367Z,231.70
2019-04-05T14:10:35.596Z,233.73
2019-04-05T14:14:42.921Z,234.67
2019-04-05T14:18:50.030Z,228.97
2019-04-05T14:22:57.158Z,234.37
2019-04-05T14:27:04.390Z,230.10
2019-04-05T14:31:11.481Z,232.37
2019-04-05T14:35:18.596Z,229.77
2019-04-05T14:39:25.853Z,232.20
2019-04-05T14:43:32.924Z,228.37
2019-04-05T14:47:41.532Z,228.63
2019-04-05T14:51:54.981Z,231.70
2019-04-05T14:55:59.260Z,231.53
2019-04-05T15:00:08.695Z,236.33
2019-04-05T15:04:15.768Z,235.80
2019-04-05T15:08:22.941Z,230.27
2019-04-05T15:12:30.035Z,222.50
2019-04-05T15:16:37.147Z,230.47
2019-04-05T15:20:44.245Z,234.93
2019-04-05T15:24:51.358Z,228.73
2019-04-05T15:28:58.704Z,230.37
2019-04-05T15:33:05.790Z,229.00
2019-04-05T15:37:15.758Z,228.70
2019-04-05T15:41:21.990Z,229.00
2019-04-05T15:45:29.300Z,229.23
2019-04-05T15:49:36.519Z,231.90
2019-04-05T15:53:43.745Z,227.97
2019-04-05T15:57:50.850Z,226.13
2019-04-05T16:01:58.005Z,237.20
2019-04-05T16:06:05.229Z,225.13
2019-04-05T16:10:13.024Z,222.73
2019-04-05T16:14:20.559Z,221.53
2019-04-05T16:18:27.625Z,227.77
2019-04-05T16:22:36.028Z,229.30
2019-04-05T16:26:43.267Z,233.70
2019-04-05T16:30:50.357Z,229.80
2019-04-05T16:34:57.431Z,227.80
2019-04-05T16:39:07.969Z,228.77
2019-04-05T16:43:15.449Z,227.17
2019-04-05T16:47:22.630Z,226.43
2019-04-05T16:51:29.758Z,228.93
2019-04-05T16:55:36.885Z,229.17
2019-04-05T16:59:43.991Z,231.17
2019-04-05T17:03:51.382Z,226.57
2019-04-05T17:07:58.578Z,224.50
2019-04-05T17:12:05.752Z,232.20
2019-04-05T17:16:13.516Z,228.03
2019-04-05T17:20:20.973Z,239.70
2019-04-05T17:24:28.368Z,228.57
2019-04-05T17:28:35.487Z,233.33
2019-04-05T17:32:42.653Z,232.97
2019-04-05T17:36:49.796Z,228.70
2019-04-05T17:40:57.002Z,230.53
2019-04-05T17:45:05.912Z,229.23
2019-04-05T17:49:13.001Z,231.33
2019-04-05T17:53:20.071Z,226.73
2019-04-05T17:57:27.898Z,233.93
2019-04-05T18:01:35.038Z,230.53
2019-04-05T18:05:42.172Z,224.23
2019-04-05T18:09:49.243Z,222.70
2019-04-05T18:13:56.397Z,225.17
2019-04-05T18:18:03.501Z,229.47
2019-04-05T18:22:10.636Z,227.43
2019-04-05T18:26:17.711Z,230.03
2019-04-05T18:30:24.840Z,227.67
2019-04-05T18:34:31.914Z,223.03
2019-04-05T18:38:39.007Z,230.43
2019-04-05T18:42:46.144Z,229.33
2019-04-05T18:46:53.220Z,226.63
2019-04-05T18:51:00.362Z,232.43
2019-04-05T18:55:07.905Z,232.77
2019-04-05T18:59:15.065Z,231.90
2019-04-05T19:03:22.195Z,230.20
2019-04-05T19:07:29.351Z,227.73
2019-04-05T19:11:36.479Z,236.83
2019-04-05T19:15:44.399Z,232.23
2019-04-05T19:19:51.466Z,225.73
2019-04-05T19:23:58.568Z,230.93
2019-04-05T19:28:05.757Z,231.90
2019-04-05T19:48:48.595Z,231.43
2019-04-05T19:52:55.724Z,228.27
2019-04-05T19:57:03.070Z,230.30
2019-04-05T20:01:10.153Z,231.63
2019-04-05T20:05:17.317Z,243.83
2019-04-05T20:09:24.403Z,239.40
2019-04-05T20:13:31.482Z,229.13
2019-04-05T20:17:38.824Z,225.20
2019-04-05T20:21:46.082Z,231.20
2019-04-05T20:25:53.180Z,235.40
2019-04-05T20:30:00.264Z,238.83
2019-04-05T20:34:07.523Z,235.47
2019-04-05T20:38:15.504Z,233.97
2019-04-05T20:42:23.122Z,237.27
2019-04-05T20:46:30.219Z,231.47
2019-04-05T20:50:37.566Z,232.93
2019-04-05T20:54:44.636Z,231.47
2019-04-05T20:58:51.742Z,244.60
2019-04-05T21:02:58.859Z,245.20
2019-04-05T21:07:05.954Z,232.80
2019-04-05T21:11:13.056Z,239.10
2019-04-05T21:15:20.306Z,235.77
2019-04-05T21:19:27.725Z,232.10
2019-04-05T21:23:34.837Z,227.63
2019-04-05T21:27:41.954Z,229.30
2019-04-05T21:31:49.123Z,229.20
2019-04-05T21:35:56.548Z,224.83
2019-04-05T21:40:05.152Z,238.27
2019-04-05T21:44:12.495Z,236.27
2019-04-05T21:48:19.714Z,236.07
2019-04-05T21:52:27.046Z,231.07
2019-04-05T21:56:34.154Z,232.57
2019-04-05T22:00:46.051Z,231.70
2019-04-05T22:04:53.126Z,235.33
2019-04-05T22:09:00.827Z,231.17
2019-04-05T22:13:08.119Z,226.37
2019-04-05T22:17:15.224Z,223.23
2019-04-05T22:21:22.314Z,230.67
2019-04-05T22:25:29.468Z,235.17
2019-04-05T22:29:36.577Z,224.27
2019-04-05T22:33:43.688Z,227.30
2019-04-05T22:37:50.702Z,226.67
2019-04-05T22:41:57.794Z,224.20
2019-04-05T22:46:04.902Z,223.37
2019-04-05T22:50:12.329Z,223.90
2019-04-05T22:54:19.395Z,224.10
2019-04-05T22:58:26.477Z,224.77
2019-04-05T23:02:33.579Z,226.17
2019-04-05T23:06:40.689Z,237.30
2019-04-05T23:10:47.864Z,227.03
2019-04-05T23:14:55.025Z,225.57
2019-04-05T23:19:02.250Z,225.53
2019-04-05T23:23:09.599Z,227.73
2019-04-05T23:27:16.647Z,225.90
2019-04-05T23:31:23.882Z,231.77
2019-04-05T23:35:30.957Z,226.33
2019-04-05T23:39:38.113Z,231.47
2019-04-05T23:43:45.561Z,228.27
2019-04-05T23:47:52.712Z,227.07
2019-04-05T23:51:59.800Z,224.70
2019-04-05T23:56:06.925Z,225.77
